createdAt,value
2017-04-14T00:00:15.617Z,2.23
2017-04-14T00:01:21.573Z,2.37
2017-04-14T00:02:27.592Z,3.32
2017-04-14T00:03:33.596Z,0.47
2017-04-14T00:04:39.465Z,2.33
2017-04-14T00:05:45.245Z,2.55
2017-04-14T00:06:51.253Z,2.97
2017-04-14T00:07:57.113Z,2.30
2017-04-14T00:09:02.933Z,2.18
2017-04-14T00:10:08.968Z,2.60
2017-04-14T00:11:14.890Z,2.35
2017-04-14T00:12:20.913Z,1.78
2017-04-14T00:13:26.843Z,1.50
2017-04-14T00:14:32.982Z,2.10
2017-04-14T00:15:40.055Z,4.30
2017-04-14T00:16:45.897Z,2.78
2017-04-14T00:17:51.895Z,2.12
2017-04-14T00:18:57.956Z,2.23
2017-04-14T00:20:03.805Z,2.23
2017-04-14T00:21:09.678Z,2.27
2017-04-14T00:22:16.325Z,1.92
2017-04-14T00:23:23.913Z,1.92
2017-04-14T00:24:30.795Z,2.37
2017-04-14T00:25:36.937Z,2.65
2017-04-14T00:26:42.946Z,1.98
2017-04-14T00:27:49.375Z,1.75
2017-04-14T00:28:55.450Z,2.65
2017-04-14T00:30:01.437Z,3.10
2017-04-14T00:31:07.455Z,1.50
2017-04-14T00:32:13.439Z,1.93
2017-04-14T00:33:19.213Z,2.20
2017-04-14T00:34:25.065Z,2.80
2017-04-14T00:35:31.328Z,2.72
2017-04-14T00:36:37.233Z,2.23
2017-04-14T00:37:43.166Z,2.12
2017-04-14T00:38:49.065Z,2.55
2017-04-14T00:39:55.022Z,1.25
2017-04-14T00:41:01.108Z,1.88
2017-04-14T00:42:06.994Z,3.13
2017-04-14T00:43:12.941Z,2.42
2017-04-14T00:44:20.069Z,3.10
2017-04-14T00:45:27.286Z,2.35
2017-04-14T00:46:33.939Z,1.95
2017-04-14T00:47:40.071Z,1.90
2017-04-14T00:48:45.933Z,3.40
2017-04-14T00:49:51.982Z,1.83
2017-04-14T00:50:58.199Z,3.05
2017-04-14T00:52:04.393Z,2.77
2017-04-14T00:53:11.064Z,2.25
2017-04-14T00:54:18.106Z,1.70
2017-04-14T00:55:24.086Z,2.45
2017-04-14T00:56:29.848Z,1.63
2017-04-14T00:57:35.932Z,1.63
2017-04-14T00:58:41.954Z,2.28
2017-04-14T00:59:47.848Z,2.28
2017-04-14T01:00:54.164Z,2.80
2017-04-14T01:02:00.111Z,2.43
2017-04-14T01:03:06.732Z,2.87
2017-04-14T01:04:12.513Z,2.07
2017-04-14T01:05:19.182Z,2.45
2017-04-14T01:06:25.488Z,2.58
2017-04-14T01:07:31.562Z,2.32
2017-04-14T01:08:37.305Z,3.40
2017-04-14T01:09:43.430Z,2.15
2017-04-14T01:10:49.215Z,2.27
2017-04-14T01:11:55.221Z,3.07
2017-04-14T01:13:01.107Z,2.32
2017-04-14T01:14:07.004Z,2.00
2017-04-14T01:15:13.115Z,3.20
2017-04-14T01:16:18.954Z,1.80
2017-04-14T01:17:25.444Z,2.90
2017-04-14T01:18:32.096Z,3.20
2017-04-14T01:19:38.028Z,3.20
2017-04-14T01:20:43.906Z,2.12
2017-04-14T01:21:49.970Z,2.67
2017-04-14T01:22:55.918Z,2.57
2017-04-14T01:24:01.824Z,1.68
2017-04-14T01:25:07.850Z,2.50
2017-04-14T01:26:13.888Z,2.25
2017-04-14T01:27:19.853Z,2.38
2017-04-14T01:28:25.682Z,2.57
2017-04-14T01:29:31.674Z,2.00
2017-04-14T01:30:37.645Z,2.08
2017-04-14T01:31:49.188Z,2.15
2017-04-14T01:32:55.474Z,2.45
2017-04-14T01:34:01.477Z,2.22
2017-04-14T01:35:07.243Z,2.02
2017-04-14T01:36:13.262Z,4.15
2017-04-14T01:37:19.347Z,2.55
2017-04-14T01:38:26.013Z,2.35
2017-04-14T01:39:31.737Z,2.52
2017-04-14T01:40:37.540Z,1.87
2017-04-14T01:41:43.332Z,2.02
2017-04-14T01:42:49.080Z,2.57
2017-04-14T01:43:54.989Z,2.47
2017-04-14T01:45:00.722Z,2.37
2017-04-14T01:46:06.586Z,3.15
2017-04-14T01:47:12.529Z,2.10
2017-04-14T01:48:24.749Z,1.98
2017-04-14T01:49:30.567Z,2.60
2017-04-14T01:50:36.353Z,2.85
2017-04-14T01:51:42.145Z,2.92
2017-04-14T01:52:48.029Z,3.02
2017-04-14T01:53:54.002Z,2.18
2017-04-14T01:55:00.015Z,2.38
2017-04-14T01:56:05.856Z,3.17
2017-04-14T01:57:11.759Z,2.85
2017-04-14T01:58:17.778Z,2.55
2017-04-14T01:59:23.669Z,2.83
2017-04-14T02:00:29.561Z,1.82
2017-04-14T02:01:36.095Z,2.80
2017-04-14T02:02:42.113Z,2.60
2017-04-14T02:03:47.918Z,3.17
2017-04-14T02:04:53.861Z,2.37
2017-04-14T02:05:59.861Z,2.68
2017-04-14T02:07:05.826Z,1.33
2017-04-14T02:08:11.649Z,1.97
2017-04-14T02:09:17.746Z,3.53
2017-04-14T02:10:23.696Z,2.55
2017-04-14T02:11:29.630Z,2.85
2017-04-14T02:12:35.433Z,2.53
2017-04-14T02:13:41.811Z,1.97
2017-04-14T02:14:47.733Z,2.33
2017-04-14T02:15:53.469Z,3.00
2017-04-14T02:16:59.362Z,2.05
2017-04-14T02:18:05.122Z,2.70
2017-04-14T02:19:11.187Z,2.28
2017-04-14T02:20:17.281Z,3.10
2017-04-14T02:21:23.126Z,2.55
2017-04-14T02:22:28.996Z,2.62
2017-04-14T02:23:34.768Z,3.27
2017-04-14T02:24:40.729Z,1.62
2017-04-14T02:25:46.524Z,2.42
2017-04-14T02:26:52.570Z,2.50
2017-04-14T02:27:59.144Z,2.30
2017-04-14T02:29:04.924Z,2.40
2017-04-14T02:30:10.761Z,2.22
2017-04-14T02:31:16.717Z,3.77
2017-04-14T02:32:22.422Z,2.97
2017-04-14T02:33:29.222Z,2.17
2017-04-14T02:34:35.205Z,2.15
2017-04-14T02:35:40.946Z,3.75
2017-04-14T02:36:47.651Z,2.08
2017-04-14T02:37:54.138Z,3.10
2017-04-14T02:38:59.925Z,2.13
2017-04-14T02:40:05.778Z,2.52
2017-04-14T02:41:11.803Z,1.73
2017-04-14T02:42:17.767Z,4.20
2017-04-14T02:48:15.412Z,2.52
2017-04-14T02:54:11.110Z,2.45
2017-04-14T02:55:17.833Z,1.97
2017-04-14T02:56:23.573Z,2.62
2017-04-14T02:57:29.588Z,2.52
2017-04-14T02:58:35.569Z,3.45
2017-04-14T02:59:41.495Z,2.68
2017-04-14T03:00:47.192Z,2.87
2017-04-14T03:01:53.014Z,3.30
2017-04-14T03:02:58.785Z,2.70
2017-04-14T03:04:04.482Z,2.47
2017-04-14T03:05:10.321Z,1.70
2017-04-14T03:06:16.213Z,3.48
2017-04-14T03:07:22.200Z,2.72
2017-04-14T03:08:28.081Z,2.60
2017-04-14T03:09:34.059Z,1.75
2017-04-14T03:10:40.377Z,2.95
2017-04-14T03:11:46.229Z,2.07
2017-04-14T03:12:51.997Z,1.98
2017-04-14T03:13:57.718Z,2.48
2017-04-14T03:15:03.713Z,2.75
2017-04-14T03:16:09.836Z,1.67
2017-04-14T03:17:15.717Z,2.07
2017-04-14T03:18:21.465Z,2.65
2017-04-14T03:19:27.242Z,2.47
2017-04-14T03:20:33.317Z,3.65
2017-04-14T03:21:39.445Z,3.82
2017-04-14T03:22:45.465Z,2.22
2017-04-14T03:23:51.275Z,2.82
2017-04-14T03:24:57.219Z,2.98
2017-04-14T03:26:03.841Z,2.93
2017-04-14T03:27:09.752Z,2.38
2017-04-14T03:28:15.531Z,3.70
2017-04-14T03:29:21.328Z,1.78
2017-04-14T03:30:27.141Z,3.10
2017-04-14T03:31:32.832Z,1.57
2017-04-14T03:32:38.706Z,3.00
2017-04-14T03:33:44.783Z,3.50
2017-04-14T03:34:50.634Z,2.58
2017-04-14T03:35:56.466Z,1.83
2017-04-14T03:37:02.384Z,2.17
2017-04-14T03:38:08.296Z,2.38
2017-04-14T03:39:14.021Z,2.83
2017-04-14T03:40:20.476Z,1.55
2017-04-14T03:41:26.267Z,2.95
2017-04-14T03:42:32.253Z,2.22
2017-04-14T03:43:38.211Z,3.43
2017-04-14T03:44:44.092Z,2.12
2017-04-14T03:45:50.064Z,2.22
2017-04-14T03:46:55.841Z,1.73
2017-04-14T03:48:02.379Z,2.13
2017-04-14T03:49:08.990Z,2.40
2017-04-14T03:50:14.912Z,4.68
2017-04-14T03:51:20.629Z,1.93
2017-04-14T03:52:27.279Z,1.65
2017-04-14T03:53:34.047Z,1.83
2017-04-14T03:54:39.836Z,2.20
2017-04-14T03:55:45.853Z,1.80
2017-04-14T03:56:51.929Z,2.15
2017-04-14T03:57:58.746Z,2.13
2017-04-14T03:59:04.906Z,2.50
2017-04-14T04:00:10.884Z,2.25
2017-04-14T04:01:16.789Z,1.88
2017-04-14T04:02:22.734Z,3.07
2017-04-14T04:03:29.029Z,3.92
2017-04-14T04:04:34.957Z,2.35
2017-04-14T04:05:40.773Z,5.37
2017-04-14T04:06:46.526Z,2.03
2017-04-14T04:07:52.476Z,2.20
2017-04-14T04:08:58.464Z,2.67
2017-04-14T04:10:04.355Z,1.98
2017-04-14T04:11:10.396Z,3.20
2017-04-14T04:12:16.284Z,1.78
2017-04-14T04:13:22.046Z,3.27
2017-04-14T04:14:28.041Z,3.40
2017-04-14T04:15:34.166Z,2.35
2017-04-14T04:16:41.958Z,1.80
2017-04-14T04:17:47.852Z,1.77
2017-04-14T04:18:57.129Z,2.17
2017-04-14T04:20:03.941Z,1.92
2017-04-14T04:27:12.347Z,2.10
2017-04-14T04:28:18.441Z,1.60
2017-04-14T04:29:25.061Z,2.50
2017-04-14T04:30:30.937Z,2.10
2017-04-14T04:31:41.037Z,1.42
2017-04-14T04:32:52.456Z,3.58
2017-04-14T04:34:16.073Z,3.13
2017-04-14T04:35:21.934Z,2.17
2017-04-14T04:36:27.661Z,1.90
2017-04-14T04:37:33.441Z,2.27
2017-04-14T04:38:41.303Z,1.73
2017-04-14T04:39:47.282Z,1.80
2017-04-14T04:40:53.126Z,2.02
2017-04-14T04:41:59.108Z,3.87
2017-04-14T04:43:05.235Z,3.03
2017-04-14T04:44:12.134Z,3.05
2017-04-14T04:45:18.748Z,2.20
2017-04-14T04:46:24.673Z,2.47
2017-04-14T04:47:30.402Z,2.47
2017-04-14T04:48:37.203Z,3.62
2017-04-14T04:49:43.330Z,2.95
2017-04-14T04:50:49.266Z,2.73
2017-04-14T04:51:55.024Z,3.10
2017-04-14T04:53:01.665Z,2.25
2017-04-14T04:54:07.595Z,1.62
2017-04-14T04:55:14.185Z,3.38
2017-04-14T04:56:20.070Z,2.53
2017-04-14T04:57:27.988Z,2.48
2017-04-14T04:58:33.918Z,2.27
2017-04-14T04:59:40.186Z,2.22
2017-04-14T05:00:46.241Z,2.20
2017-04-14T05:01:52.509Z,3.17
2017-04-14T05:02:58.453Z,1.43
2017-04-14T05:04:04.551Z,2.60
2017-04-14T05:05:10.636Z,3.03
2017-04-14T05:06:16.634Z,2.25
2017-04-14T05:07:23.555Z,3.53
2017-04-14T05:08:29.523Z,2.27
2017-04-14T05:09:35.352Z,2.95
2017-04-14T05:10:41.410Z,1.50
2017-04-14T05:11:47.463Z,2.30
2017-04-14T05:12:53.376Z,3.30
2017-04-14T05:13:59.340Z,2.22
2017-04-14T05:15:05.663Z,1.58
2017-04-14T05:16:12.639Z,2.77
2017-04-14T05:17:18.412Z,2.37
2017-04-14T05:18:24.707Z,2.52
2017-04-14T05:19:30.713Z,2.58
2017-04-14T05:20:37.042Z,3.02
2017-04-14T05:21:43.612Z,2.70
2017-04-14T05:22:49.622Z,1.62
2017-04-14T05:23:55.581Z,2.83
2017-04-14T05:25:02.759Z,2.02
2017-04-14T05:26:08.667Z,1.68
2017-04-14T05:27:14.521Z,3.55
2017-04-14T05:28:21.444Z,3.07
2017-04-14T05:29:28.450Z,2.00
2017-04-14T05:30:35.271Z,3.12
2017-04-14T05:31:41.217Z,2.25
2017-04-14T05:32:48.120Z,3.18
2017-04-14T05:33:54.438Z,3.07
2017-04-14T05:35:01.104Z,3.28
2017-04-14T05:36:09.737Z,3.02
2017-04-14T05:37:15.750Z,5.52
2017-04-14T05:38:21.892Z,2.92
2017-04-14T05:39:33.306Z,2.48
2017-04-14T05:40:39.795Z,3.40
2017-04-14T05:41:45.606Z,3.55
2017-04-14T05:42:52.331Z,2.18
2017-04-14T05:43:58.337Z,2.23
2017-04-14T05:45:05.122Z,3.37
2017-04-14T05:46:10.948Z,2.60
2017-04-14T05:47:18.282Z,3.65
2017-04-14T05:48:24.560Z,2.35
2017-04-14T05:49:31.717Z,2.48
2017-04-14T05:50:37.710Z,3.22
2017-04-14T05:51:43.488Z,2.45
2017-04-14T05:52:49.573Z,2.42
2017-04-14T05:53:55.764Z,2.05
2017-04-14T05:55:01.643Z,3.25
2017-04-14T05:56:07.637Z,2.73
2017-04-14T05:57:13.942Z,2.95
2017-04-14T05:58:19.849Z,2.33
2017-04-14T05:59:26.876Z,3.58
2017-04-14T06:00:33.450Z,1.42
2017-04-14T06:01:40.546Z,2.58
2017-04-14T06:02:47.540Z,4.67
2017-04-14T06:03:54.442Z,3.67
2017-04-14T06:05:01.684Z,2.75
2017-04-14T06:06:07.578Z,2.82
2017-04-14T06:07:15.314Z,3.88
2017-04-14T06:08:21.310Z,2.03
2017-04-14T06:09:27.563Z,2.60
2017-04-14T06:10:34.205Z,2.47
2017-04-14T06:11:40.319Z,2.80
2017-04-14T06:12:46.434Z,2.95
2017-04-14T06:13:52.510Z,1.98
2017-04-14T06:15:00.329Z,2.30
2017-04-14T06:16:06.364Z,5.55
2017-04-14T06:17:13.123Z,2.75
2017-04-14T06:18:19.223Z,3.25
2017-04-14T06:19:25.192Z,4.43
2017-04-14T06:20:30.988Z,1.98
2017-04-14T06:21:36.887Z,2.57
2017-04-14T06:22:42.661Z,2.55
2017-04-14T06:23:48.620Z,1.63
2017-04-14T06:24:56.425Z,3.85
2017-04-14T06:26:02.305Z,2.87
2017-04-14T06:27:08.698Z,2.35
2017-04-14T06:28:14.670Z,1.83
2017-04-14T06:29:20.701Z,2.50
2017-04-14T06:30:26.965Z,2.08
2017-04-14T06:31:33.476Z,2.07
2017-04-14T06:32:39.277Z,2.37
2017-04-14T06:33:45.802Z,1.90
2017-04-14T06:34:53.201Z,2.32
2017-04-14T06:35:59.872Z,2.62
2017-04-14T06:37:06.106Z,2.17
2017-04-14T06:38:12.046Z,2.05
2017-04-14T06:39:18.223Z,2.55
2017-04-14T06:40:24.906Z,1.57
2017-04-14T06:41:31.084Z,0.72
2017-04-14T06:42:37.058Z,2.10
2017-04-14T06:43:43.232Z,2.27
2017-04-14T06:44:49.960Z,3.00
2017-04-14T06:45:55.717Z,1.20
2017-04-14T06:47:01.785Z,2.00
2017-04-14T06:48:07.759Z,3.10
2017-04-14T06:49:13.767Z,2.05
2017-04-14T06:50:20.772Z,2.40
2017-04-14T06:51:26.731Z,2.42
2017-04-14T06:52:32.671Z,1.82
2017-04-14T06:53:38.684Z,2.17
2017-04-14T06:54:46.437Z,1.55
2017-04-14T06:55:52.501Z,1.90
2017-04-14T06:56:58.535Z,1.83
2017-04-14T06:58:04.821Z,1.07
2017-04-14T06:59:10.582Z,2.62
2017-04-14T07:00:16.333Z,2.75
2017-04-14T07:01:22.157Z,3.15
2017-04-14T07:02:28.254Z,2.72
2017-04-14T07:03:34.145Z,2.02
2017-04-14T07:04:39.941Z,1.98
2017-04-14T07:05:45.942Z,1.88
2017-04-14T07:06:51.692Z,3.52
2017-04-14T07:07:57.701Z,2.50
2017-04-14T07:09:03.645Z,2.95
2017-04-14T07:10:09.937Z,3.00
2017-04-14T07:11:15.727Z,2.28
2017-04-14T07:12:21.743Z,0.82
2017-04-14T07:13:27.744Z,2.47
2017-04-14T07:14:33.632Z,2.10
2017-04-14T07:15:39.728Z,2.40
2017-04-14T07:16:45.603Z,2.42
2017-04-14T07:17:51.334Z,2.45
2017-04-14T07:18:57.846Z,2.42
2017-04-14T07:20:03.896Z,1.58
2017-04-14T07:21:09.936Z,2.57
2017-04-14T07:22:16.729Z,2.20
2017-04-14T07:23:22.649Z,2.55
2017-04-14T07:24:28.778Z,4.65
2017-04-14T07:25:34.925Z,2.37
2017-04-14T07:26:41.505Z,1.98
2017-04-14T07:27:48.152Z,1.85
2017-04-14T07:28:54.236Z,4.93
2017-04-14T07:29:59.997Z,2.80
2017-04-14T07:31:06.149Z,2.50
2017-04-14T07:32:12.227Z,1.95
2017-04-14T07:33:18.187Z,1.30
2017-04-14T07:34:24.216Z,2.45
2017-04-14T07:35:30.115Z,1.62
2017-04-14T07:36:35.969Z,2.17
2017-04-14T07:37:42.164Z,1.35
2017-04-14T07:38:47.901Z,2.95
2017-04-14T07:46:32.554Z,1.45
2017-04-14T07:47:39.308Z,3.27
2017-04-14T07:48:44.996Z,2.92
2017-04-14T07:49:51.810Z,2.80
2017-04-14T07:50:58.688Z,3.00
2017-04-14T07:52:15.203Z,3.50
2017-04-14T07:53:24.829Z,2.07
2017-04-14T07:54:31.648Z,2.15
2017-04-14T07:55:37.809Z,2.87
2017-04-14T07:56:43.753Z,2.53
2017-04-14T07:57:51.029Z,3.42
2017-04-14T07:58:57.111Z,3.10
2017-04-14T08:00:02.977Z,2.92
2017-04-14T08:01:12.073Z,2.68
2017-04-14T08:02:19.346Z,2.82
2017-04-14T08:03:25.982Z,1.93
2017-04-14T08:04:33.725Z,2.70
2017-04-14T08:05:40.452Z,2.52
2017-04-14T08:06:47.218Z,3.18
2017-04-14T08:07:55.457Z,5.03
2017-04-14T08:09:01.328Z,3.15
2017-04-14T08:10:07.080Z,2.42
2017-04-14T08:11:13.742Z,2.13
2017-04-14T08:12:19.465Z,2.63
2017-04-14T08:13:26.173Z,1.82
2017-04-14T08:16:08.735Z,2.93
2017-04-14T08:17:15.449Z,3.42
2017-04-14T08:18:21.545Z,3.85
2017-04-14T08:19:27.350Z,2.85
2017-04-14T08:20:34.093Z,2.68
2017-04-14T08:21:41.006Z,3.13
2017-04-14T08:22:46.912Z,3.08
2017-04-14T08:23:54.087Z,3.62
2017-04-14T08:24:59.920Z,4.90
2017-04-14T08:26:06.020Z,3.85
2017-04-14T08:27:12.129Z,4.67
2017-04-14T08:28:17.922Z,4.97
2017-04-14T08:29:23.770Z,3.35
2017-04-14T08:30:32.704Z,3.70
2017-04-14T08:31:38.663Z,2.62
2017-04-14T08:32:46.181Z,4.27
2017-04-14T08:33:52.212Z,3.22
2017-04-14T08:35:14.952Z,2.57
2017-04-14T08:36:20.903Z,2.75
2017-04-14T08:37:27.102Z,3.38
2017-04-14T08:38:33.457Z,5.00
2017-04-14T08:39:39.419Z,4.15
2017-04-14T08:40:45.378Z,2.72
2017-04-14T08:41:51.475Z,4.13
2017-04-14T08:42:57.422Z,2.98
2017-04-14T08:44:04.242Z,3.35
2017-04-14T08:45:09.409Z,3.33
2017-04-14T08:46:15.440Z,3.23
2017-04-14T08:47:21.144Z,3.92
2017-04-14T08:48:27.045Z,3.68
2017-04-14T08:49:33.093Z,3.07
2017-04-14T08:50:39.770Z,3.30
2017-04-14T08:51:46.286Z,5.50
2017-04-14T08:52:52.375Z,4.20
2017-04-14T08:53:59.457Z,3.87
2017-04-14T08:55:05.496Z,3.85
2017-04-14T08:56:11.410Z,4.28
2017-04-14T08:57:17.280Z,4.08
2017-04-14T08:58:23.981Z,3.38
2017-04-14T08:59:29.824Z,3.75
2017-04-14T09:00:35.908Z,3.85
2017-04-14T09:01:41.841Z,3.98
2017-04-14T09:02:48.465Z,4.30
2017-04-14T09:03:55.068Z,3.98
2017-04-14T09:05:01.029Z,4.20
2017-04-14T09:06:07.077Z,4.63
2017-04-14T09:07:13.011Z,4.43
2017-04-14T09:08:18.997Z,5.83
2017-04-14T09:09:25.037Z,4.35
2017-04-14T09:10:30.795Z,4.60
2017-04-14T09:11:36.858Z,3.72
2017-04-14T09:12:42.650Z,5.55
2017-04-14T09:13:49.250Z,4.27
2017-04-14T09:14:55.272Z,3.55
2017-04-14T09:16:01.191Z,4.05
2017-04-14T09:17:07.997Z,4.85
2017-04-14T09:18:13.907Z,4.95
2017-04-14T09:19:19.881Z,5.47
2017-04-14T09:20:25.588Z,4.15
2017-04-14T09:21:34.140Z,4.75
2017-04-14T09:22:40.360Z,5.67
2017-04-14T09:23:46.129Z,4.47
2017-04-14T09:24:52.754Z,4.37
2017-04-14T09:25:58.804Z,4.87
2017-04-14T09:27:04.754Z,5.37
2017-04-14T09:28:12.303Z,4.03
2017-04-14T09:29:18.414Z,4.22
2017-04-14T09:30:24.762Z,4.05
2017-04-14T09:31:31.054Z,8.35
2017-04-14T09:32:36.946Z,4.03
2017-04-14T09:33:43.285Z,4.52
2017-04-14T09:34:49.071Z,4.80
2017-04-14T09:35:55.908Z,5.13
2017-04-14T09:37:01.782Z,4.07
2017-04-14T09:38:07.818Z,2.88
2017-04-14T09:39:13.854Z,4.70
2017-04-14T09:43:28.880Z,6.33
2017-04-14T09:44:35.813Z,5.58
2017-04-14T09:45:41.969Z,4.90
2017-04-14T09:46:47.970Z,5.75
2017-04-14T09:47:53.951Z,4.68
2017-04-14T09:48:59.922Z,5.17
2017-04-14T09:50:07.059Z,4.95
2017-04-14T09:51:13.060Z,5.58
2017-04-14T09:52:19.106Z,6.15
2017-04-14T09:53:25.142Z,6.22
2017-04-14T09:54:31.155Z,8.68
2017-04-14T09:55:37.034Z,6.48
2017-04-14T09:56:42.933Z,5.40
2017-04-14T09:57:48.703Z,5.85
2017-04-14T09:58:55.250Z,5.68
2017-04-14T10:00:01.189Z,7.65
2017-04-14T10:01:07.855Z,6.30
2017-04-14T10:02:13.751Z,7.65
2017-04-14T10:03:19.770Z,5.87
2017-04-14T10:04:25.810Z,4.18
2017-04-14T10:05:31.717Z,5.28
2017-04-14T10:06:39.074Z,5.88
2017-04-14T10:07:46.278Z,4.62
2017-04-14T10:08:53.191Z,5.38
2017-04-14T10:09:59.475Z,6.22
2017-04-14T10:11:06.505Z,5.27
2017-04-14T10:12:13.455Z,5.53
2017-04-14T10:13:19.421Z,5.45
2017-04-14T10:14:26.039Z,5.27
2017-04-14T10:15:32.640Z,5.55
2017-04-14T10:16:39.880Z,5.28
2017-04-14T10:17:46.333Z,4.85
2017-04-14T10:18:52.336Z,5.35
2017-04-14T10:19:58.267Z,4.82
2017-04-14T10:21:04.435Z,4.70
2017-04-14T10:22:12.131Z,5.28
2017-04-14T10:23:18.147Z,4.48
2017-04-14T10:24:24.075Z,5.90
2017-04-14T10:25:29.830Z,5.77
2017-04-14T10:26:36.553Z,4.85
2017-04-14T10:27:42.688Z,5.50
2017-04-14T10:28:48.842Z,4.20
2017-04-14T10:29:55.029Z,4.67
2017-04-14T10:31:01.362Z,3.65
2017-04-14T10:32:07.233Z,4.15
2017-04-14T10:33:13.492Z,5.32
2017-04-14T10:34:19.543Z,3.70
2017-04-14T10:35:25.582Z,3.85
2017-04-14T10:36:32.190Z,4.27
2017-04-14T10:37:38.391Z,3.75
2017-04-14T10:38:44.352Z,4.07
2017-04-14T10:39:50.395Z,4.18
2017-04-14T10:40:56.495Z,3.92
2017-04-14T10:42:02.968Z,3.25
2017-04-14T10:43:08.942Z,4.53
2017-04-14T10:44:14.861Z,4.30
2017-04-14T10:45:20.917Z,3.40
2017-04-14T10:46:26.857Z,3.62
2017-04-14T10:47:34.302Z,3.72
2017-04-14T10:48:40.253Z,3.95
2017-04-14T10:49:46.403Z,3.68
2017-04-14T10:50:52.473Z,3.87
2017-04-14T10:51:58.530Z,4.25
2017-04-14T10:53:04.309Z,4.60
2017-04-14T10:54:10.320Z,3.77
2017-04-14T10:55:16.315Z,4.10
2017-04-14T10:56:22.228Z,1.67
2017-04-14T10:57:28.181Z,3.12
2017-04-14T10:58:34.093Z,4.00
2017-04-14T10:59:40.218Z,4.60
2017-04-14T11:00:46.408Z,4.08
2017-04-14T11:01:52.416Z,2.12
2017-04-14T11:02:59.239Z,3.53
2017-04-14T11:04:05.253Z,4.45
2017-04-14T11:05:12.110Z,4.03
2017-04-14T11:06:18.193Z,2.93
2017-04-14T11:07:24.451Z,1.87
2017-04-14T11:08:31.261Z,3.33
2017-04-14T11:09:37.398Z,3.68
2017-04-14T11:10:43.325Z,4.78
2017-04-14T11:11:49.349Z,4.88
2017-04-14T11:12:55.346Z,4.50
2017-04-14T11:14:01.387Z,3.25
2017-04-14T11:16:21.741Z,4.02
2017-04-14T11:17:27.571Z,4.02
2017-04-14T11:18:33.627Z,5.08
2017-04-14T11:19:39.594Z,3.73
2017-04-14T11:20:45.927Z,3.67
2017-04-14T11:21:56.737Z,3.87
2017-04-14T11:23:03.582Z,4.62
2017-04-14T11:24:12.196Z,4.90
2017-04-14T11:25:21.086Z,4.92
2017-04-14T11:26:28.568Z,5.72
2017-04-14T11:27:34.676Z,4.42
2017-04-14T11:28:43.345Z,3.75
2017-04-14T11:29:49.846Z,4.43
2017-04-14T11:30:55.657Z,4.53
2017-04-14T11:32:04.565Z,4.63
2017-04-14T11:33:10.566Z,4.92
2017-04-14T11:34:17.518Z,5.12
2017-04-14T11:35:23.748Z,4.40
2017-04-14T11:36:30.277Z,4.57
2017-04-14T11:37:37.801Z,4.50
2017-04-14T11:38:44.686Z,5.27
2017-04-14T11:39:50.816Z,5.55
2017-04-14T11:40:56.945Z,5.18
2017-04-14T11:42:02.895Z,5.12
2017-04-14T11:43:08.956Z,3.55
2017-04-14T11:44:15.678Z,3.80
2017-04-14T11:45:21.719Z,2.98
2017-04-14T11:46:27.838Z,4.05
2017-04-14T11:47:34.550Z,4.45
2017-04-14T11:48:41.217Z,1.80
2017-04-14T11:49:47.052Z,4.35
2017-04-14T11:50:53.100Z,5.18
2017-04-14T11:51:59.544Z,4.82
2017-04-14T11:53:05.463Z,3.67
2017-04-14T11:54:11.497Z,4.28
2017-04-14T11:55:17.362Z,4.40
2017-04-14T11:56:23.417Z,4.70
2017-04-14T11:57:29.630Z,5.33
2017-04-14T11:58:36.228Z,4.10
2017-04-14T11:59:42.254Z,7.60
2017-04-14T12:00:48.469Z,6.12
2017-04-14T12:01:54.527Z,4.10
2017-04-14T12:03:00.678Z,4.55
2017-04-14T12:04:06.658Z,4.90
2017-04-14T12:05:12.789Z,6.63
2017-04-14T12:06:19.682Z,4.40
2017-04-14T12:07:25.555Z,5.25
2017-04-14T12:08:31.791Z,4.65
2017-04-14T12:09:37.657Z,4.32
2017-04-14T12:10:43.642Z,4.35
2017-04-14T12:11:49.643Z,5.17
2017-04-14T12:12:55.617Z,4.60
2017-04-14T12:14:01.577Z,4.13
2017-04-14T12:15:08.297Z,4.03
2017-04-14T12:16:14.232Z,4.43
2017-04-14T12:17:22.122Z,6.08
2017-04-14T12:18:28.133Z,4.28
2017-04-14T12:19:34.501Z,3.10
2017-04-14T12:20:40.329Z,3.42
2017-04-14T12:21:46.305Z,3.68
2017-04-14T12:22:52.841Z,2.70
2017-04-14T12:23:58.860Z,4.33
2017-04-14T12:25:05.084Z,4.37
2017-04-14T12:26:11.493Z,3.20
2017-04-14T12:27:17.402Z,3.03
2017-04-14T12:28:23.517Z,4.25
2017-04-14T12:29:29.391Z,4.57
2017-04-14T12:30:35.256Z,3.98
2017-04-14T12:31:41.145Z,4.27
2017-04-14T12:32:47.371Z,3.73
2017-04-14T12:33:53.164Z,5.10
2017-04-14T12:34:59.213Z,3.55
2017-04-14T12:36:05.305Z,3.75
2017-04-14T12:37:11.270Z,3.30
2017-04-14T12:38:17.819Z,4.12
2017-04-14T12:39:23.940Z,3.63
2017-04-14T12:40:30.170Z,3.67
2017-04-14T12:41:36.539Z,2.92
2017-04-14T12:42:46.403Z,3.33
2017-04-14T12:43:52.505Z,3.33
2017-04-14T12:44:58.889Z,3.30
2017-04-14T12:46:05.611Z,4.18
2017-04-14T12:47:11.834Z,3.35
2017-04-14T12:48:18.033Z,4.83
2017-04-14T12:49:27.530Z,4.40
2017-04-14T12:50:33.363Z,4.90
2017-04-14T12:51:39.616Z,4.70
2017-04-14T12:52:46.564Z,3.92
2017-04-14T12:53:52.480Z,3.68
2017-04-14T12:54:58.518Z,3.40
2017-04-14T12:56:06.106Z,4.22
2017-04-14T12:57:12.662Z,4.73
2017-04-14T12:58:26.983Z,3.77
2017-04-14T12:59:32.985Z,3.22
2017-04-14T13:00:39.170Z,3.33
2017-04-14T13:01:45.390Z,2.67
2017-04-14T13:02:51.222Z,3.73
2017-04-14T13:03:57.335Z,2.62
2017-04-14T13:05:03.500Z,2.62
2017-04-14T13:06:10.036Z,2.68
2017-04-14T13:07:16.174Z,2.72
2017-04-14T13:08:22.073Z,4.88
2017-04-14T13:09:29.442Z,2.00
2017-04-14T13:10:36.350Z,2.43
2017-04-14T13:11:42.142Z,2.60
2017-04-14T13:12:48.177Z,1.57
2017-04-14T13:13:53.991Z,3.02
2017-04-14T13:15:00.103Z,1.98
2017-04-14T13:16:06.245Z,3.50
2017-04-14T13:17:12.191Z,2.60
2017-04-14T13:18:18.168Z,2.25
2017-04-14T13:19:23.997Z,2.90
2017-04-14T13:20:30.339Z,2.40
2017-04-14T13:21:36.202Z,2.17
2017-04-14T13:22:42.270Z,1.77
2017-04-14T13:23:48.219Z,1.45
2017-04-14T13:24:54.110Z,2.57
2017-04-14T13:26:00.165Z,2.97
2017-04-14T13:27:06.404Z,2.32
2017-04-14T13:28:13.148Z,3.23
2017-04-14T13:29:18.916Z,1.65
2017-04-14T13:30:24.745Z,2.68
2017-04-14T13:31:30.635Z,2.12
2017-04-14T13:34:21.867Z,2.55
2017-04-14T13:35:27.654Z,2.25
2017-04-14T13:36:34.216Z,1.60
2017-04-14T13:37:40.297Z,3.82
2017-04-14T13:38:46.402Z,2.40
2017-04-14T13:39:52.382Z,2.13
2017-04-14T13:42:34.120Z,2.22
2017-04-14T13:43:40.263Z,1.85
2017-04-14T13:44:46.394Z,2.35
2017-04-14T13:45:52.234Z,2.78
2017-04-14T13:46:58.277Z,2.40
2017-04-14T13:48:04.515Z,3.62
2017-04-14T13:49:10.334Z,4.95
2017-04-14T13:50:16.170Z,2.35
2017-04-14T13:51:22.184Z,2.08
2017-04-14T13:52:27.993Z,3.85
2017-04-14T13:53:34.440Z,2.13
2017-04-14T13:54:40.811Z,2.48
2017-04-14T13:55:46.819Z,2.10
2017-04-14T13:56:52.846Z,2.80
2017-04-14T13:57:58.875Z,1.63
2017-04-14T13:59:05.097Z,2.08
2017-04-14T14:00:12.275Z,2.85
2017-04-14T14:01:18.172Z,2.28
2017-04-14T14:02:24.136Z,1.75
2017-04-14T14:03:30.275Z,2.37
2017-04-14T14:04:36.362Z,2.40
2017-04-14T14:05:42.375Z,2.45
2017-04-14T14:06:49.381Z,2.75
2017-04-14T14:07:55.202Z,2.60
2017-04-14T14:09:01.743Z,2.60
2017-04-14T14:10:07.752Z,3.07
2017-04-14T14:11:16.778Z,3.03
2017-04-14T14:12:23.802Z,2.83
2017-04-14T14:13:30.833Z,3.13
2017-04-14T14:14:36.857Z,2.62
2017-04-14T14:15:43.624Z,2.52
2017-04-14T14:16:50.083Z,2.77
2017-04-14T14:17:58.042Z,2.00
2017-04-14T14:19:04.041Z,2.60
2017-04-14T14:20:09.832Z,1.98
2017-04-14T14:21:15.915Z,0.70
2017-04-14T14:22:22.126Z,1.37
2017-04-14T14:23:28.288Z,1.82
2017-04-14T14:24:34.309Z,2.00
2017-04-14T14:25:40.302Z,1.58
2017-04-14T14:26:46.889Z,1.75
2017-04-14T14:27:52.678Z,1.43
2017-04-14T14:28:58.471Z,1.37
2017-04-14T14:30:04.554Z,1.50
2017-04-14T14:31:10.434Z,1.73
2017-04-14T14:32:16.555Z,2.22
2017-04-14T14:33:22.543Z,2.28
2017-04-14T14:34:28.674Z,1.40
2017-04-14T14:35:34.729Z,1.92
2017-04-14T14:36:40.550Z,1.93
2017-04-14T14:37:46.707Z,1.30
2017-04-14T14:38:52.812Z,4.60
2017-04-14T14:39:58.675Z,2.12
2017-04-14T14:41:04.697Z,1.93
2017-04-14T14:42:11.778Z,2.48
2017-04-14T14:43:17.934Z,2.08
2017-04-14T14:44:24.116Z,2.15
2017-04-14T14:45:30.774Z,2.68
2017-04-14T14:46:37.038Z,4.02
2017-04-14T14:47:43.147Z,1.43
2017-04-14T14:48:49.315Z,1.68
2017-04-14T14:49:56.135Z,2.03
2017-04-14T14:51:02.083Z,1.82
2017-04-14T14:52:08.673Z,2.38
2017-04-14T14:53:14.699Z,2.18
2017-04-14T14:54:20.567Z,2.38
2017-04-14T14:55:26.848Z,2.23
2017-04-14T14:56:33.102Z,2.02
2017-04-14T14:57:38.898Z,2.10
2017-04-14T14:58:45.016Z,3.02
2017-04-14T14:59:51.239Z,2.65
2017-04-14T15:00:57.162Z,3.20
2017-04-14T15:02:03.238Z,1.85
2017-04-14T15:03:09.141Z,2.30
2017-04-14T15:04:15.002Z,2.10
2017-04-14T15:05:21.110Z,3.80
2017-04-14T15:06:27.089Z,2.87
2017-04-14T15:07:33.235Z,2.90
2017-04-14T15:08:39.162Z,2.58
2017-04-14T15:09:45.151Z,3.13
2017-04-14T15:10:51.446Z,2.68
2017-04-14T15:11:57.562Z,2.47
2017-04-14T15:13:03.418Z,2.12
2017-04-14T15:14:09.398Z,2.05